createdAt,value
2022-10-18T00:01:05.917Z,66.13
2022-10-18T00:04:16.261Z,66.12
2022-10-18T00:07:20.028Z,65.96
2022-10-18T00:10:27.913Z,66.07
2022-10-18T00:13:34.267Z,66.27
2022-10-18T00:16:37.744Z,66.30
2022-10-18T00:19:42.760Z,66.24
2022-10-18T00:22:46.353Z,66.17
2022-10-18T00:25:49.116Z,66.21
2022-10-18T00:28:54.992Z,66.17
2022-10-18T00:31:57.988Z,66.43
2022-10-18T00:35:00.716Z,66.36
2022-10-18T00:38:03.541Z,66.51
2022-10-18T00:41:08.618Z,66.47
2022-10-18T00:44:11.296Z,66.59
2022-10-18T00:47:18.163Z,66.64
2022-10-18T00:50:22.243Z,66.85
2022-10-18T00:53:25.098Z,67.01
2022-10-18T00:56:29.899Z,66.94
2022-10-18T00:59:34.052Z,66.90
2022-10-18T01:02:38.625Z,67.05
2022-10-18T01:05:45.850Z,66.98
2022-10-18T01:09:24.283Z,67.13
2022-10-18T01:12:58.540Z,67.31
2022-10-18T01:16:30.907Z,67.23
2022-10-18T01:19:58.262Z,67.20
2022-10-18T01:23:11.069Z,67.36
2022-10-18T01:26:45.499Z,67.51
2022-10-18T01:30:03.640Z,67.31
2022-10-18T01:33:20.422Z,67.30
2022-10-18T01:36:29.159Z,67.64
2022-10-18T01:39:37.515Z,67.65
2022-10-18T01:42:40.242Z,67.81
2022-10-18T01:45:43.505Z,67.75
2022-10-18T01:48:47.137Z,67.82
2022-10-18T01:51:49.977Z,68.24
2022-10-18T01:54:55.026Z,68.35
2022-10-18T01:58:10.723Z,68.37
2022-10-18T02:01:31.139Z,68.54
2022-10-18T02:04:40.773Z,68.69
2022-10-18T02:08:24.215Z,68.63
2022-10-18T02:11:30.821Z,68.97
2022-10-18T02:14:34.928Z,68.77
2022-10-18T02:17:40.347Z,68.89
2022-10-18T02:20:43.333Z,69.07
2022-10-18T02:23:47.797Z,68.95
2022-10-18T02:26:50.723Z,68.91
2022-10-18T02:29:54.121Z,69.05
2022-10-18T02:33:04.613Z,69.12
2022-10-18T02:36:17.236Z,69.05
2022-10-18T02:39:25.679Z,69.21
2022-10-18T02:42:33.893Z,69.12
2022-10-18T02:45:37.007Z,69.35
2022-10-18T02:48:39.835Z,69.70
2022-10-18T02:51:42.572Z,69.83
2022-10-18T02:54:45.289Z,70.02
2022-10-18T02:57:48.378Z,70.27
2022-10-18T03:00:51.267Z,70.31
2022-10-18T03:03:54.051Z,70.34
2022-10-18T03:06:56.738Z,70.50
2022-10-18T03:09:59.507Z,70.40
2022-10-18T03:13:02.203Z,70.39
2022-10-18T03:16:05.450Z,70.15
2022-10-18T03:19:08.405Z,70.24
2022-10-18T03:22:11.164Z,70.38
2022-10-18T03:25:14.080Z,70.63
2022-10-18T03:28:16.943Z,70.69
2022-10-18T03:31:20.497Z,70.74
2022-10-18T03:34:26.274Z,70.92
2022-10-18T03:37:29.142Z,70.83
2022-10-18T03:40:32.531Z,70.87
2022-10-18T03:43:35.599Z,70.81
2022-10-18T03:46:38.576Z,70.79
2022-10-18T03:49:41.654Z,70.99
2022-10-18T03:52:44.515Z,71.20
2022-10-18T03:55:52.927Z,71.10
2022-10-18T03:58:57.314Z,71.14
2022-10-18T04:02:00.298Z,71.51
2022-10-18T04:05:03.789Z,71.39
2022-10-18T04:08:06.666Z,71.49
2022-10-18T04:11:11.091Z,71.50
2022-10-18T04:14:14.035Z,71.21
2022-10-18T04:17:16.996Z,71.09
2022-10-18T04:20:19.964Z,71.14
2022-10-18T04:23:22.838Z,71.19
2022-10-18T04:26:25.967Z,71.47
2022-10-18T04:29:28.880Z,71.12
2022-10-18T04:32:31.867Z,70.88
2022-10-18T04:35:34.824Z,71.10
2022-10-18T04:38:37.694Z,70.94
2022-10-18T04:41:40.547Z,71.19
2022-10-18T04:44:43.436Z,71.45
2022-10-18T04:47:46.304Z,71.61
2022-10-18T04:50:50.197Z,71.62
2022-10-18T04:53:53.174Z,71.63
2022-10-18T04:56:58.020Z,71.44
2022-10-18T05:00:01.163Z,71.32
2022-10-18T05:03:04.341Z,71.23
2022-10-18T05:06:07.312Z,71.65
2022-10-18T05:09:10.488Z,71.75
2022-10-18T05:12:13.358Z,71.59
2022-10-18T05:15:16.333Z,71.47
2022-10-18T05:18:23.583Z,71.75
2022-10-18T05:21:26.674Z,72.03
2022-10-18T05:24:29.446Z,71.86
2022-10-18T05:27:32.415Z,71.76
2022-10-18T05:30:39.321Z,71.89
2022-10-18T05:33:42.350Z,72.04
2022-10-18T05:36:45.323Z,72.40
2022-10-18T05:39:50.255Z,72.18
2022-10-18T05:42:53.390Z,72.08
2022-10-18T05:45:56.490Z,71.85
2022-10-18T05:48:59.677Z,71.81
2022-10-18T05:52:02.742Z,71.94
2022-10-18T05:55:06.123Z,72.36
2022-10-18T05:58:09.543Z,72.49
2022-10-18T06:01:13.850Z,72.53
2022-10-18T06:04:18.061Z,72.70
2022-10-18T06:07:20.990Z,73.05
2022-10-18T06:10:24.055Z,72.93
2022-10-18T06:13:28.278Z,73.58
2022-10-18T06:16:33.314Z,73.42
2022-10-18T06:19:36.243Z,73.10
2022-10-18T06:22:39.118Z,73.05
2022-10-18T06:25:41.996Z,72.87
2022-10-18T06:28:45.114Z,72.79
2022-10-18T06:31:48.136Z,72.77
2022-10-18T06:34:50.953Z,72.97
2022-10-18T06:37:53.774Z,73.26
2022-10-18T06:40:58.224Z,73.15
2022-10-18T06:44:07.390Z,73.11
2022-10-18T06:47:10.568Z,73.17
2022-10-18T06:50:13.645Z,72.99
2022-10-18T06:53:16.821Z,73.02
2022-10-18T06:56:25.943Z,72.97
2022-10-18T06:59:31.230Z,72.86
2022-10-18T07:02:34.727Z,72.74
2022-10-18T07:05:38.125Z,72.88
2022-10-18T07:08:41.504Z,72.99
2022-10-18T07:11:44.373Z,73.07
2022-10-18T07:14:47.355Z,72.81
2022-10-18T07:17:50.732Z,72.81
2022-10-18T07:20:53.596Z,72.94
2022-10-18T07:23:57.187Z,73.13
2022-10-18T07:27:00.053Z,73.28
2022-10-18T07:30:07.373Z,73.35
2022-10-18T07:33:10.294Z,73.55
2022-10-18T07:36:13.676Z,73.70
2022-10-18T07:39:16.549Z,73.47
2022-10-18T07:42:19.623Z,73.57
2022-10-18T07:45:22.592Z,73.53
2022-10-18T07:48:26.417Z,73.63
2022-10-18T07:51:31.198Z,73.80
2022-10-18T07:54:34.070Z,73.72
2022-10-18T07:57:36.941Z,73.87
2022-10-18T08:00:40.118Z,73.98
2022-10-18T08:03:43.911Z,73.83
2022-10-18T08:06:48.212Z,73.81
2022-10-18T08:09:51.077Z,73.88
2022-10-18T08:12:54.916Z,73.85
2022-10-18T08:16:06.065Z,74.01
2022-10-18T08:19:09.001Z,74.03
2022-10-18T08:22:11.978Z,74.04
2022-10-18T08:25:16.560Z,74.28
2022-10-18T08:28:20.679Z,74.61
2022-10-18T08:31:24.579Z,74.54
2022-10-18T08:34:27.483Z,74.53
2022-10-18T08:37:30.747Z,74.32
2022-10-18T08:40:34.928Z,74.43
2022-10-18T08:43:45.701Z,74.31
2022-10-18T08:46:56.342Z,74.20
2022-10-18T08:50:08.954Z,74.17
2022-10-18T08:53:23.466Z,74.26
2022-10-18T08:56:27.678Z,74.35
2022-10-18T08:59:41.385Z,74.39
2022-10-18T09:02:56.870Z,74.58
2022-10-18T09:06:19.836Z,74.64
2022-10-18T09:09:41.754Z,74.62
2022-10-18T09:13:08.261Z,74.64
2022-10-18T09:16:15.943Z,74.88
2022-10-18T09:19:34.266Z,74.60
2022-10-18T09:22:47.674Z,75.10
2022-10-18T09:26:00.129Z,74.98
2022-10-18T09:29:28.310Z,74.80
2022-10-18T09:32:31.505Z,74.74
2022-10-18T09:36:02.105Z,74.85
2022-10-18T09:39:24.107Z,74.79
2022-10-18T09:42:40.544Z,74.72
2022-10-18T09:45:46.011Z,74.53
2022-10-18T09:48:56.549Z,74.60
2022-10-18T09:52:04.068Z,74.65
2022-10-18T09:55:16.411Z,74.64
2022-10-18T09:58:21.433Z,74.76
2022-10-18T10:01:30.643Z,74.78
2022-10-18T10:04:33.513Z,74.95
2022-10-18T10:07:43.351Z,74.84
2022-10-18T10:10:47.849Z,74.83
2022-10-18T10:13:50.747Z,74.88
2022-10-18T10:17:00.346Z,75.06
2022-10-18T10:20:20.523Z,75.22
2022-10-18T10:23:28.522Z,75.19
2022-10-18T10:26:38.995Z,75.31
2022-10-18T10:29:56.132Z,75.38
2022-10-18T10:32:59.416Z,75.47
2022-10-18T10:36:07.357Z,75.57
2022-10-18T10:39:19.497Z,75.49
2022-10-18T10:42:22.556Z,75.69
2022-10-18T10:45:29.009Z,75.60
2022-10-18T10:48:39.571Z,75.55
2022-10-18T10:51:43.813Z,75.84
2022-10-18T10:54:51.350Z,76.47
2022-10-18T10:57:56.653Z,76.94
2022-10-18T11:01:18.354Z,77.78
2022-10-18T11:04:30.870Z,78.21
2022-10-18T11:07:41.159Z,78.59
2022-10-18T11:11:19.381Z,78.49
2022-10-18T11:14:29.915Z,78.61
2022-10-18T11:17:51.770Z,78.86
2022-10-18T11:21:09.068Z,79.38
2022-10-18T11:24:16.783Z,79.47
2022-10-18T11:27:33.685Z,79.25
2022-10-18T11:30:49.745Z,79.40
2022-10-18T11:34:15.947Z,79.68
2022-10-18T11:37:40.494Z,79.67
2022-10-18T11:41:23.191Z,79.59
2022-10-18T11:44:37.522Z,79.20
2022-10-18T11:47:56.560Z,79.43
2022-10-18T11:51:05.877Z,79.63
2022-10-18T11:54:23.996Z,79.75
2022-10-18T11:57:42.114Z,79.41
2022-10-18T12:00:49.430Z,79.54
2022-10-18T12:04:18.151Z,79.45
2022-10-18T12:07:27.731Z,79.52
2022-10-18T12:10:46.055Z,79.36
2022-10-18T12:14:01.231Z,79.34
2022-10-18T12:17:40.791Z,79.43
2022-10-18T12:21:05.519Z,79.24
2022-10-18T12:24:16.338Z,79.39
2022-10-18T12:27:23.637Z,79.17
2022-10-18T12:30:55.877Z,78.94
2022-10-18T12:34:04.678Z,79.02
2022-10-18T12:37:26.994Z,78.92
2022-10-18T12:40:44.054Z,78.87
2022-10-18T12:43:57.311Z,79.03
2022-10-18T12:47:03.297Z,78.92
2022-10-18T12:50:25.255Z,79.17
2022-10-18T12:53:29.435Z,79.04
2022-10-18T12:56:42.547Z,78.85
2022-10-18T12:59:45.410Z,78.96
2022-10-18T13:03:31.261Z,78.90
2022-10-18T13:07:03.611Z,79.03
2022-10-18T13:10:13.125Z,79.07
2022-10-18T13:13:39.054Z,78.94
2022-10-18T13:16:49.466Z,79.18
2022-10-18T13:20:20.438Z,79.36
2022-10-18T13:23:41.768Z,79.46
2022-10-18T13:27:24.076Z,79.53
2022-10-18T13:30:32.752Z,79.70
2022-10-18T13:33:36.831Z,79.56
2022-10-18T13:36:40.321Z,79.62
2022-10-18T13:39:43.493Z,79.62
2022-10-18T13:42:46.362Z,79.35
2022-10-18T13:45:56.196Z,79.50
2022-10-18T13:49:17.689Z,79.52
2022-10-18T13:52:35.721Z,79.60
2022-10-18T13:56:16.138Z,79.42
2022-10-18T13:59:44.177Z,79.23
2022-10-18T14:03:26.967Z,79.14
2022-10-18T14:06:44.575Z,78.96
2022-10-18T14:09:56.930Z,79.14
2022-10-18T14:13:04.515Z,78.98
2022-10-18T14:16:32.043Z,78.97
2022-10-18T14:19:44.337Z,79.08
2022-10-18T14:23:01.748Z,79.06
2022-10-18T14:26:16.711Z,79.19
2022-10-18T14:29:22.995Z,79.33
2022-10-18T14:32:32.341Z,79.56
2022-10-18T14:35:36.045Z,79.70
2022-10-18T14:38:56.928Z,79.75
2022-10-18T14:41:59.812Z,80.08
2022-10-18T14:45:03.212Z,80.11
2022-10-18T14:48:27.330Z,80.25
2022-10-18T14:51:35.377Z,80.39
2022-10-18T14:54:39.458Z,80.43
2022-10-18T14:57:43.304Z,80.62
2022-10-18T15:00:48.538Z,80.52
2022-10-18T15:03:56.821Z,80.60
2022-10-18T15:07:15.907Z,80.57
2022-10-18T15:10:34.284Z,80.49
2022-10-18T15:13:47.607Z,80.53
2022-10-18T15:16:59.264Z,80.37
2022-10-18T15:20:26.696Z,80.53
2022-10-18T15:23:31.511Z,80.52
2022-10-18T15:26:34.521Z,80.66
2022-10-18T15:29:38.067Z,80.59
2022-10-18T15:32:49.216Z,80.74
2022-10-18T15:35:55.070Z,80.85
2022-10-18T15:39:19.978Z,80.82
2022-10-18T15:42:38.112Z,81.07
2022-10-18T15:49:19.198Z,81.15
2022-10-18T15:52:21.970Z,81.08
2022-10-18T15:55:30.668Z,80.97
2022-10-18T15:58:46.775Z,81.11
2022-10-18T16:01:50.664Z,81.04
2022-10-18T16:04:53.918Z,80.89
2022-10-18T16:07:56.989Z,80.81
2022-10-18T16:11:00.176Z,81.10
2022-10-18T16:14:03.135Z,81.71
2022-10-18T16:17:07.058Z,81.40
2022-10-18T16:20:22.481Z,81.80
2022-10-18T16:23:29.567Z,82.11
2022-10-18T16:26:33.563Z,82.02
2022-10-18T16:29:36.415Z,82.03
2022-10-18T16:32:40.721Z,82.21
2022-10-18T16:35:43.591Z,82.29
2022-10-18T16:38:51.780Z,82.24
2022-10-18T16:41:54.857Z,82.15
2022-10-18T16:44:58.951Z,82.14
2022-10-18T16:48:02.031Z,82.15
2022-10-18T16:51:04.999Z,82.25
2022-10-18T16:54:08.381Z,82.32
2022-10-18T16:57:12.894Z,82.39
2022-10-18T17:00:19.565Z,82.38
2022-10-18T17:03:22.618Z,82.39
2022-10-18T17:06:29.488Z,82.37
2022-10-18T17:09:35.116Z,82.55
2022-10-18T17:12:37.983Z,82.77
2022-10-18T17:15:43.778Z,82.80
2022-10-18T17:18:47.137Z,82.71
2022-10-18T17:21:50.688Z,82.75
2022-10-18T17:24:53.433Z,82.85
2022-10-18T17:27:56.322Z,82.71
2022-10-18T17:30:59.202Z,82.63
2022-10-18T17:34:02.472Z,82.65
2022-10-18T17:37:06.060Z,82.78
2022-10-18T17:40:10.681Z,82.84
2022-10-18T17:43:14.770Z,82.85
2022-10-18T17:46:19.670Z,82.89
2022-10-18T17:49:22.552Z,83.09
2022-10-18T17:52:25.524Z,83.15
2022-10-18T17:55:30.339Z,83.25
2022-10-18T17:58:33.621Z,83.31
2022-10-18T18:01:37.918Z,83.17
2022-10-18T18:04:41.775Z,83.32
2022-10-18T18:07:44.889Z,83.27
2022-10-18T18:13:56.586Z,83.40
2022-10-18T18:17:01.583Z,83.27
2022-10-18T18:20:05.481Z,83.30
2022-10-18T18:23:08.454Z,83.23
2022-10-18T18:26:12.242Z,83.15
2022-10-18T18:29:15.118Z,83.15
2022-10-18T18:32:18.082Z,83.24
2022-10-18T18:35:21.058Z,83.06
2022-10-18T18:38:26.692Z,83.07
2022-10-18T18:41:29.763Z,83.05
2022-10-18T18:44:34.175Z,82.96
2022-10-18T18:47:38.707Z,82.89
2022-10-18T18:50:50.250Z,82.82
2022-10-18T18:53:53.334Z,83.12
2022-10-18T18:56:56.185Z,83.15
2022-10-18T18:59:59.060Z,83.00
2022-10-18T19:29:40.584Z,82.46
2022-10-18T19:32:44.148Z,82.34
2022-10-18T19:35:46.937Z,82.39
2022-10-18T19:38:50.024Z,82.40
2022-10-18T19:42:26.150Z,82.44
2022-10-18T19:45:30.339Z,82.47
2022-10-18T19:48:33.186Z,82.50
2022-10-18T19:51:38.035Z,82.43
2022-10-18T19:54:41.034Z,82.46
2022-10-18T19:57:43.899Z,82.32
2022-10-18T20:00:52.675Z,82.36
2022-10-18T20:03:56.601Z,82.39
2022-10-18T20:06:59.526Z,82.31
2022-10-18T20:10:03.606Z,82.27
2022-10-18T20:13:06.611Z,82.21
2022-10-18T20:16:11.627Z,82.22
2022-10-18T20:19:14.604Z,82.21
2022-10-18T20:22:18.494Z,82.12
2022-10-18T20:25:22.256Z,82.15
2022-10-18T20:28:27.489Z,82.17
2022-10-18T20:31:34.679Z,82.30
2022-10-18T20:34:37.649Z,82.26
2022-10-18T20:37:40.625Z,82.16
2022-10-18T20:40:43.718Z,82.14
2022-10-18T20:43:58.643Z,82.08
2022-10-18T20:47:01.511Z,82.14
2022-10-18T20:50:04.898Z,82.15
2022-10-18T20:53:07.761Z,82.15
2022-10-18T20:56:39.007Z,82.10
2022-10-18T20:59:42.168Z,82.20
2022-10-18T21:02:47.151Z,82.34
2022-10-18T21:05:51.057Z,82.34
2022-10-18T21:09:02.148Z,82.41
2022-10-18T21:12:05.530Z,82.34
2022-10-18T21:15:09.197Z,82.30
2022-10-18T21:18:12.065Z,82.39
2022-10-18T21:21:21.384Z,82.32
2022-10-18T21:24:26.397Z,82.64
2022-10-18T21:27:29.886Z,82.70
2022-10-18T21:30:32.855Z,82.81
2022-10-18T21:33:35.732Z,82.73
2022-10-18T21:36:40.436Z,82.66
2022-10-18T21:39:43.530Z,82.70
2022-10-18T21:42:46.586Z,82.53
2022-10-18T21:45:49.461Z,82.57
2022-10-18T21:48:54.387Z,82.64
2022-10-18T21:51:58.580Z,82.65
2022-10-18T21:55:01.955Z,82.71
2022-10-18T21:58:04.928Z,82.68
2022-10-18T22:01:09.998Z,82.69
2022-10-18T22:04:24.446Z,82.84
2022-10-18T22:07:28.168Z,82.70
2022-10-18T22:10:32.388Z,82.64
2022-10-18T22:13:35.650Z,82.52
2022-10-18T22:16:38.727Z,82.47
2022-10-18T22:19:43.742Z,82.45
2022-10-18T22:22:47.625Z,82.61
2022-10-18T22:25:51.428Z,82.60
2022-10-18T22:28:56.029Z,82.85
2022-10-18T22:31:59.622Z,82.79
2022-10-18T22:35:02.390Z,82.81
2022-10-18T22:38:05.262Z,82.75
2022-10-18T22:41:11.464Z,82.72
2022-10-18T22:44:15.409Z,82.71
2022-10-18T22:47:18.384Z,82.63
2022-10-18T22:50:21.348Z,82.50
2022-10-18T22:53:24.421Z,82.42
2022-10-18T22:56:28.723Z,82.42
2022-10-18T22:59:31.596Z,82.52
2022-10-18T23:02:34.899Z,82.57
2022-10-18T23:05:42.760Z,82.75
2022-10-18T23:08:45.727Z,82.79
2022-10-18T23:11:51.161Z,82.82
2022-10-18T23:14:54.032Z,82.91
2022-10-18T23:18:00.171Z,82.85
2022-10-18T23:21:10.847Z,82.75
2022-10-18T23:24:13.798Z,82.67
2022-10-18T23:27:16.660Z,82.70
2022-10-18T23:30:20.052Z,82.64
2022-10-18T23:33:23.022Z,82.63
2022-10-18T23:36:26.608Z,82.56
2022-10-18T23:39:29.473Z,82.48
2022-10-18T23:42:32.340Z,82.57
2022-10-18T23:45:37.794Z,82.49
2022-10-18T23:48:40.844Z,82.61
2022-10-18T23:51:43.714Z,82.65
2022-10-18T23:54:46.813Z,82.67
2022-10-18T23:57:49.657Z,82.53
